createdAt,value
2018-10-03T00:02:04.049Z,98.71
2018-10-03T00:04:33.415Z,99.11
2018-10-03T00:07:02.803Z,98.74
2018-10-03T00:09:32.238Z,98.45
2018-10-03T00:12:01.756Z,98.84
2018-10-03T00:14:31.153Z,98.13
2018-10-03T00:17:02.069Z,98.49
2018-10-03T00:19:31.430Z,97.88
2018-10-03T00:22:00.875Z,97.88
2018-10-03T00:24:30.247Z,97.99
2018-10-03T00:26:59.601Z,97.96
2018-10-03T00:29:29.062Z,98.12
2018-10-03T00:31:58.440Z,98.11
2018-10-03T00:34:27.851Z,97.88
2018-10-03T00:36:57.256Z,97.89
2018-10-03T00:39:26.816Z,97.93
2018-10-03T00:41:56.490Z,98.34
2018-10-03T00:44:25.862Z,98.38
2018-10-03T00:46:55.237Z,98.24
2018-10-03T00:49:24.632Z,97.85
2018-10-03T00:51:54.066Z,98.02
2018-10-03T00:54:23.610Z,98.29
2018-10-03T00:56:53.105Z,98.00
2018-10-03T00:59:22.624Z,98.41
2018-10-03T01:01:51.996Z,98.11
2018-10-03T01:04:21.374Z,98.50
2018-10-03T01:06:50.836Z,98.18
2018-10-03T01:09:20.234Z,98.38
2018-10-03T01:11:50.248Z,98.82
2018-10-03T01:14:19.661Z,99.03
2018-10-03T01:16:49.148Z,98.82
2018-10-03T01:19:19.493Z,98.93
2018-10-03T01:21:48.894Z,98.59
2018-10-03T01:24:18.267Z,98.98
2018-10-03T01:26:47.771Z,99.40
2018-10-03T01:29:17.146Z,100.00
2018-10-03T01:31:46.731Z,99.97
2018-10-03T01:34:16.197Z,99.96
2018-10-03T01:36:45.572Z,99.86
2018-10-03T01:39:15.009Z,100.00
2018-10-03T01:41:44.366Z,100.00
2018-10-03T01:44:13.743Z,100.00
2018-10-03T01:46:43.102Z,100.00
2018-10-03T01:49:12.498Z,100.00
2018-10-03T01:51:41.880Z,100.00
2018-10-03T01:54:11.375Z,100.00
2018-10-03T01:56:40.745Z,100.00
2018-10-03T01:59:10.116Z,100.00
2018-10-03T02:01:39.716Z,100.00
2018-10-03T02:04:09.331Z,100.00
2018-10-03T02:06:38.682Z,100.00
2018-10-03T02:09:08.354Z,100.00
2018-10-03T02:11:37.786Z,100.00
2018-10-03T02:14:07.625Z,100.00
2018-10-03T02:16:37.165Z,100.00
2018-10-03T02:19:06.581Z,100.00
2018-10-03T02:21:36.023Z,100.00
2018-10-03T02:24:05.423Z,100.00
2018-10-03T02:26:35.085Z,100.00
2018-10-03T02:31:46.714Z,100.00
2018-10-03T02:34:16.094Z,100.00
2018-10-03T02:36:45.467Z,100.00
2018-10-03T02:39:14.902Z,100.00
2018-10-03T02:41:44.303Z,100.00
2018-10-03T02:44:14.166Z,100.00
2018-10-03T02:46:43.581Z,100.00
2018-10-03T02:49:13.002Z,100.00
2018-10-03T02:51:42.487Z,100.00
2018-10-03T02:54:12.198Z,100.00
2018-10-03T02:56:41.683Z,100.00
2018-10-03T02:59:11.050Z,100.00
2018-10-03T03:01:40.534Z,100.00
2018-10-03T03:04:09.902Z,100.00
2018-10-03T03:06:39.407Z,100.00
2018-10-03T03:09:12.884Z,100.00
2018-10-03T03:11:42.569Z,100.00
2018-10-03T03:14:12.057Z,100.00
2018-10-03T03:16:41.544Z,100.00
2018-10-03T03:19:11.000Z,100.00
2018-10-03T03:21:40.407Z,100.00
2018-10-03T03:24:09.860Z,100.00
2018-10-03T03:26:39.224Z,100.00
2018-10-03T03:29:08.687Z,100.00
2018-10-03T03:31:38.129Z,100.00
2018-10-03T03:34:07.626Z,100.00
2018-10-03T03:36:37.082Z,100.00
2018-10-03T03:39:08.465Z,100.00
2018-10-03T03:41:38.060Z,100.00
2018-10-03T03:44:07.649Z,100.00
2018-10-03T03:46:37.669Z,100.00
2018-10-03T03:49:07.069Z,100.00
2018-10-03T03:51:36.579Z,100.00
2018-10-03T03:54:06.037Z,100.00
2018-10-03T03:56:35.590Z,100.00
2018-10-03T03:59:04.997Z,100.00
2018-10-03T04:01:34.384Z,100.00
2018-10-03T04:04:04.213Z,100.00
2018-10-03T04:06:33.697Z,100.00
2018-10-03T04:09:03.363Z,100.00
2018-10-03T04:11:32.751Z,100.00
2018-10-03T04:14:02.158Z,100.00
2018-10-03T04:16:31.767Z,100.00
2018-10-03T04:19:01.252Z,100.00
2018-10-03T04:21:36.941Z,100.00
2018-10-03T04:24:07.571Z,100.00
2018-10-03T04:26:37.034Z,100.00
2018-10-03T04:29:06.887Z,100.00
2018-10-03T04:31:36.947Z,100.00
2018-10-03T04:34:06.823Z,100.00
2018-10-03T04:36:36.535Z,100.00
2018-10-03T04:39:08.006Z,100.00
2018-10-03T04:41:38.380Z,100.00
2018-10-03T04:44:07.776Z,100.00
2018-10-03T04:46:37.208Z,100.00
2018-10-03T04:49:06.650Z,100.00
2018-10-03T04:51:36.094Z,100.00
2018-10-03T04:54:06.114Z,100.00
2018-10-03T04:56:35.623Z,100.00
2018-10-03T04:59:05.072Z,100.00
2018-10-03T05:01:34.430Z,100.00
2018-10-03T05:04:03.939Z,100.00
2018-10-03T05:06:33.324Z,100.00
2018-10-03T05:09:02.712Z,100.00
2018-10-03T05:11:32.245Z,100.00
2018-10-03T05:14:01.686Z,100.00
2018-10-03T05:16:31.134Z,100.00
2018-10-03T05:19:00.562Z,100.00
2018-10-03T05:21:30.000Z,100.00
2018-10-03T05:23:59.407Z,100.00
2018-10-03T05:26:29.079Z,100.00
2018-10-03T05:28:58.455Z,100.00
2018-10-03T05:31:27.868Z,100.00
2018-10-03T05:36:38.715Z,100.00
2018-10-03T05:39:11.439Z,100.00
2018-10-03T05:41:41.169Z,100.00
2018-10-03T05:44:11.085Z,100.00
2018-10-03T05:46:41.038Z,100.00
2018-10-03T05:49:10.418Z,100.00
2018-10-03T05:51:39.990Z,100.00
2018-10-03T05:54:09.366Z,100.00
2018-10-03T05:56:38.821Z,100.00
2018-10-03T05:59:08.204Z,100.00
2018-10-03T06:01:38.294Z,100.00
2018-10-03T06:04:07.690Z,100.00
2018-10-03T06:06:37.055Z,100.00
2018-10-03T06:09:10.167Z,100.00
2018-10-03T06:11:39.915Z,100.00
2018-10-03T06:14:09.444Z,100.00
2018-10-03T06:16:38.878Z,100.00
2018-10-03T06:19:08.308Z,100.00
2018-10-03T06:21:38.217Z,100.00
2018-10-03T06:24:07.937Z,100.00
2018-10-03T06:26:37.481Z,100.00
2018-10-03T06:29:06.993Z,100.00
2018-10-03T06:31:36.455Z,99.80
2018-10-03T06:34:05.929Z,98.64
2018-10-03T06:36:36.032Z,98.96
2018-10-03T06:39:07.694Z,97.85
2018-10-03T06:41:38.851Z,97.15
2018-10-03T06:44:08.332Z,96.67
2018-10-03T06:46:37.751Z,94.93
2018-10-03T06:49:07.183Z,93.64
2018-10-03T06:51:36.627Z,92.37
2018-10-03T06:54:06.078Z,91.67
2018-10-03T06:56:35.462Z,90.66
2018-10-03T06:59:05.004Z,89.56
2018-10-03T07:01:34.407Z,87.65
2018-10-03T07:04:03.844Z,88.17
2018-10-03T07:06:33.287Z,86.91
2018-10-03T07:09:02.820Z,86.12
2018-10-03T07:11:32.308Z,84.39
2018-10-03T07:14:01.926Z,84.72
2018-10-03T07:16:31.972Z,84.10
2018-10-03T07:19:01.429Z,82.59
2018-10-03T07:21:30.802Z,81.28
2018-10-03T07:24:00.251Z,80.44
2018-10-03T07:26:29.614Z,79.79
2018-10-03T07:28:59.055Z,77.86
2018-10-03T07:31:28.471Z,75.55
2018-10-03T07:33:58.002Z,75.19
2018-10-03T07:36:27.476Z,74.29
2018-10-03T07:38:56.876Z,73.97
2018-10-03T07:41:26.264Z,73.54
2018-10-03T07:43:56.047Z,72.60
2018-10-03T07:46:25.497Z,70.32
2018-10-03T07:48:54.883Z,68.90
2018-10-03T07:51:24.411Z,68.25
2018-10-03T07:53:53.763Z,68.07
2018-10-03T07:56:23.253Z,69.97
2018-10-03T07:58:52.753Z,68.90
2018-10-03T08:01:22.123Z,69.03
2018-10-03T08:03:51.627Z,68.03
2018-10-03T08:06:21.109Z,68.79
2018-10-03T08:08:50.480Z,67.60
2018-10-03T08:11:19.944Z,68.72
2018-10-03T08:13:49.383Z,68.87
2018-10-03T08:16:19.004Z,67.92
2018-10-03T08:18:48.970Z,68.34
2018-10-03T08:21:18.373Z,68.73
2018-10-03T08:23:47.784Z,67.17
2018-10-03T08:26:17.211Z,65.52
2018-10-03T08:28:46.700Z,63.33
2018-10-03T08:31:16.079Z,61.69
2018-10-03T08:33:46.257Z,60.67
2018-10-03T08:36:15.659Z,58.11
2018-10-03T08:38:45.284Z,57.64
2018-10-03T08:41:14.602Z,60.57
2018-10-03T08:43:43.959Z,59.04
2018-10-03T08:46:13.335Z,58.37
2018-10-03T08:48:42.686Z,57.42
2018-10-03T08:51:12.063Z,56.91
2018-10-03T08:53:41.495Z,56.65
2018-10-03T08:56:10.953Z,56.05
2018-10-03T08:58:40.363Z,56.53
2018-10-03T09:01:09.720Z,57.59
2018-10-03T09:03:39.575Z,56.73
2018-10-03T09:06:08.919Z,57.32
2018-10-03T09:08:38.381Z,58.11
2018-10-03T09:11:07.810Z,56.96
2018-10-03T09:13:37.207Z,57.37
2018-10-03T09:16:06.568Z,56.96
2018-10-03T09:18:36.000Z,58.44
2018-10-03T09:21:05.392Z,56.84
2018-10-03T09:23:35.138Z,58.45
2018-10-03T09:26:04.602Z,55.01
2018-10-03T09:28:34.309Z,56.67
2018-10-03T09:31:03.738Z,56.79
2018-10-03T09:33:33.120Z,58.32
2018-10-03T09:36:02.648Z,55.50
2018-10-03T09:38:32.048Z,54.44
2018-10-03T09:41:01.554Z,54.18
2018-10-03T09:43:30.958Z,55.03
2018-10-03T09:46:00.670Z,54.86
2018-10-03T09:48:30.639Z,54.85
2018-10-03T09:51:00.092Z,54.11
2018-10-03T09:53:29.496Z,55.77
2018-10-03T09:55:58.988Z,55.71
2018-10-03T09:58:28.402Z,55.75
2018-10-03T10:01:03.120Z,54.35
2018-10-03T10:03:32.537Z,54.30
2018-10-03T10:06:01.914Z,55.00
2018-10-03T10:08:31.299Z,56.80
2018-10-03T10:11:00.830Z,54.76
2018-10-03T10:13:30.163Z,54.52
2018-10-03T10:15:59.813Z,54.12
2018-10-03T10:18:29.199Z,53.54
2018-10-03T10:20:58.682Z,54.42
2018-10-03T10:23:28.638Z,54.85
2018-10-03T10:25:58.246Z,54.03
2018-10-03T10:28:27.703Z,53.88
2018-10-03T10:30:57.181Z,54.18
2018-10-03T10:33:26.612Z,53.94
2018-10-03T10:35:56.046Z,52.21
2018-10-03T10:38:25.435Z,51.96
2018-10-03T10:40:54.949Z,51.64
2018-10-03T10:43:24.415Z,52.07
2018-10-03T10:45:53.938Z,52.72
2018-10-03T10:48:23.425Z,54.52
2018-10-03T10:50:52.851Z,55.10
2018-10-03T10:53:22.269Z,55.84
2018-10-03T10:55:51.759Z,55.98
2018-10-03T10:58:21.211Z,52.96
2018-10-03T11:00:50.578Z,53.70
2018-10-03T11:03:19.982Z,53.20
2018-10-03T11:05:49.387Z,52.74
2018-10-03T11:08:18.764Z,53.96
2018-10-03T11:10:48.152Z,54.10
2018-10-03T11:13:17.510Z,53.10
2018-10-03T11:15:47.089Z,53.04
2018-10-03T11:18:16.548Z,52.53
2018-10-03T11:20:46.514Z,51.95
2018-10-03T11:23:16.006Z,52.69
2018-10-03T11:25:45.475Z,52.46
2018-10-03T11:28:14.987Z,51.69
2018-10-03T11:30:44.418Z,54.07
2018-10-03T11:33:13.928Z,52.16
2018-10-03T11:35:43.347Z,53.40
2018-10-03T11:38:13.138Z,51.47
2018-10-03T11:40:42.668Z,54.07
2018-10-03T11:43:12.011Z,53.48
2018-10-03T11:45:41.426Z,54.52
2018-10-03T11:48:11.047Z,59.84
2018-10-03T11:50:40.448Z,54.34
2018-10-03T11:53:10.091Z,55.14
2018-10-03T11:55:39.454Z,54.51
2018-10-03T11:58:08.873Z,53.55
2018-10-03T12:00:38.276Z,50.15
2018-10-03T12:03:08.015Z,49.56
2018-10-03T12:05:37.388Z,49.18
2018-10-03T12:08:06.823Z,49.71
2018-10-03T12:10:36.185Z,49.05
2018-10-03T12:18:06.174Z,49.60
2018-10-03T12:20:35.587Z,49.86
2018-10-03T12:23:05.094Z,50.13
2018-10-03T12:25:34.459Z,50.40
2018-10-03T12:28:03.872Z,49.71
2018-10-03T12:30:33.287Z,48.61
2018-10-03T12:33:02.879Z,47.45
2018-10-03T12:35:33.146Z,46.97
2018-10-03T12:38:03.312Z,47.16
2018-10-03T12:40:33.210Z,47.49
2018-10-03T12:43:02.680Z,48.12
2018-10-03T12:45:32.069Z,47.65
2018-10-03T12:48:01.542Z,47.47
2018-10-03T12:50:31.169Z,46.38
2018-10-03T12:53:00.655Z,46.80
2018-10-03T12:55:30.060Z,45.70
2018-10-03T12:57:59.467Z,45.20
2018-10-03T13:00:32.843Z,44.39
2018-10-03T13:03:04.016Z,45.80
2018-10-03T13:05:33.434Z,45.71
2018-10-03T13:08:02.890Z,44.81
2018-10-03T13:10:33.001Z,45.94
2018-10-03T13:13:02.404Z,44.19
2018-10-03T13:15:31.924Z,44.81
2018-10-03T13:18:01.357Z,43.15
2018-10-03T13:20:30.791Z,43.84
2018-10-03T13:23:00.195Z,43.74
2018-10-03T13:25:29.587Z,42.58
2018-10-03T13:27:58.949Z,41.68
2018-10-03T13:30:29.467Z,41.21
2018-10-03T13:32:58.832Z,41.86
2018-10-03T13:35:28.309Z,40.56
2018-10-03T13:37:57.722Z,41.65
2018-10-03T13:40:27.156Z,42.26
2018-10-03T13:42:56.568Z,42.11
2018-10-03T13:45:25.995Z,43.58
2018-10-03T13:47:55.484Z,45.30
2018-10-03T13:50:24.903Z,46.14
2018-10-03T13:52:54.271Z,45.94
2018-10-03T13:55:23.668Z,47.03
2018-10-03T13:57:53.097Z,48.23
2018-10-03T14:00:22.537Z,48.62
2018-10-03T14:02:51.938Z,50.40
2018-10-03T14:05:21.310Z,49.93
2018-10-03T14:07:51.088Z,51.27
2018-10-03T14:10:20.626Z,50.78
2018-10-03T14:12:50.021Z,51.02
2018-10-03T14:15:19.423Z,51.06
2018-10-03T14:17:49.628Z,51.94
2018-10-03T14:20:19.062Z,54.00
2018-10-03T14:22:48.803Z,52.20
2018-10-03T14:25:18.229Z,51.87
2018-10-03T14:27:47.676Z,51.98
2018-10-03T14:30:17.073Z,48.96
2018-10-03T14:32:46.452Z,49.58
2018-10-03T14:35:15.935Z,49.85
2018-10-03T14:37:45.304Z,50.49
2018-10-03T14:40:14.802Z,50.27
2018-10-03T14:42:44.204Z,50.62
2018-10-03T14:45:13.596Z,50.45
2018-10-03T14:47:43.007Z,50.95
2018-10-03T14:50:12.396Z,50.49
2018-10-03T14:52:41.908Z,50.82
2018-10-03T14:55:11.315Z,50.58
2018-10-03T14:57:40.825Z,50.30
2018-10-03T15:00:16.996Z,49.86
2018-10-03T15:02:46.419Z,49.24
2018-10-03T15:05:15.829Z,49.79
2018-10-03T15:07:45.243Z,49.49
2018-10-03T15:10:14.696Z,51.02
2018-10-03T15:12:44.402Z,50.97
2018-10-03T15:15:13.806Z,51.57
2018-10-03T15:17:43.323Z,51.48
2018-10-03T15:20:12.753Z,50.25
2018-10-03T15:22:42.199Z,51.81
2018-10-03T15:25:11.639Z,52.16
2018-10-03T15:27:41.107Z,51.06
2018-10-03T15:30:10.626Z,51.63
2018-10-03T15:32:40.015Z,51.27
2018-10-03T15:35:09.435Z,51.94
2018-10-03T15:37:38.974Z,51.90
2018-10-03T15:40:08.564Z,51.70
2018-10-03T15:42:37.955Z,53.54
2018-10-03T15:45:07.323Z,54.34
2018-10-03T15:47:36.877Z,53.97
2018-10-03T15:50:07.046Z,54.49
2018-10-03T15:52:36.480Z,55.28
2018-10-03T15:55:06.073Z,54.83
2018-10-03T15:57:35.365Z,54.71
2018-10-03T16:00:05.371Z,55.65
2018-10-03T16:02:34.798Z,57.90
2018-10-03T16:05:04.276Z,57.06
2018-10-03T16:07:33.807Z,57.08
2018-10-03T16:10:03.338Z,56.11
2018-10-03T16:12:32.889Z,57.10
2018-10-03T16:15:02.386Z,56.25
2018-10-03T16:17:31.973Z,58.14
2018-10-03T16:20:01.576Z,57.96
2018-10-03T16:22:31.146Z,58.63
2018-10-03T16:25:00.616Z,59.05
2018-10-03T16:27:30.241Z,59.55
2018-10-03T16:29:59.847Z,58.48
2018-10-03T16:32:29.560Z,59.15
2018-10-03T16:34:58.987Z,59.48
2018-10-03T16:37:28.489Z,61.05
2018-10-03T16:39:57.963Z,59.10
2018-10-03T16:42:27.448Z,60.29
2018-10-03T16:44:56.916Z,60.56
2018-10-03T16:47:26.378Z,61.02
2018-10-03T16:49:56.184Z,61.08
2018-10-03T16:52:25.592Z,60.17
2018-10-03T16:54:55.103Z,59.67
2018-10-03T16:57:24.691Z,61.67
2018-10-03T16:59:54.166Z,61.51
2018-10-03T17:02:23.617Z,62.30
2018-10-03T17:04:53.119Z,61.68
2018-10-03T17:07:22.545Z,63.56
2018-10-03T17:09:53.399Z,63.40
2018-10-03T17:12:22.981Z,63.52
2018-10-03T17:14:52.392Z,64.49
2018-10-03T17:17:21.888Z,63.92
2018-10-03T17:19:51.331Z,65.44
2018-10-03T17:22:20.722Z,65.27
2018-10-03T17:24:50.133Z,65.97
2018-10-03T17:27:19.791Z,65.68
2018-10-03T17:29:49.229Z,65.89
2018-10-03T17:32:18.692Z,65.97
2018-10-03T17:34:48.104Z,66.44
2018-10-03T17:37:17.579Z,66.74
2018-10-03T17:39:47.115Z,66.88
2018-10-03T17:42:16.748Z,68.49
2018-10-03T17:44:46.259Z,68.89
2018-10-03T17:47:15.665Z,68.89
2018-10-03T17:49:45.235Z,68.96
2018-10-03T17:52:14.749Z,69.22
2018-10-03T17:54:44.789Z,70.03
2018-10-03T17:57:14.580Z,69.96
2018-10-03T17:59:44.118Z,71.83
2018-10-03T18:02:14.237Z,71.62
2018-10-03T18:04:43.684Z,71.36
2018-10-03T18:07:14.004Z,71.56
2018-10-03T18:09:43.420Z,73.09
2018-10-03T18:12:13.078Z,72.32
2018-10-03T18:14:42.551Z,73.06
2018-10-03T18:17:12.145Z,73.30
2018-10-03T18:21:59.818Z,73.57
2018-10-03T18:24:29.241Z,74.05
2018-10-03T18:26:58.695Z,74.61
2018-10-03T18:29:28.193Z,75.25
2018-10-03T18:31:57.610Z,75.12
2018-10-03T18:34:27.576Z,75.62
2018-10-03T18:36:57.089Z,76.65
2018-10-03T18:39:26.646Z,76.35
2018-10-03T18:41:56.613Z,76.46
2018-10-03T18:44:26.099Z,75.22
2018-10-03T18:46:55.585Z,75.78
2018-10-03T18:49:25.159Z,75.85
2018-10-03T18:51:54.730Z,77.10
2018-10-03T18:54:24.075Z,77.50
2018-10-03T18:56:53.744Z,76.85
2018-10-03T18:59:23.353Z,77.17
2018-10-03T19:01:52.806Z,78.03
2018-10-03T19:04:22.424Z,77.26
2018-10-03T19:06:51.881Z,77.70
2018-10-03T19:09:22.378Z,76.83
2018-10-03T19:11:51.961Z,77.56
2018-10-03T19:14:21.357Z,77.82
2018-10-03T19:16:51.125Z,77.85
2018-10-03T19:19:20.615Z,77.93
2018-10-03T19:21:50.176Z,78.77
2018-10-03T19:24:19.612Z,78.27
2018-10-03T19:26:49.115Z,78.86
2018-10-03T19:29:18.718Z,78.60
2018-10-03T19:31:48.190Z,78.79
2018-10-03T19:34:17.713Z,79.82
2018-10-03T19:36:47.162Z,79.95
2018-10-03T19:39:17.037Z,79.68
2018-10-03T19:41:46.673Z,80.84
2018-10-03T19:44:16.107Z,80.68
2018-10-03T19:46:45.719Z,81.23
2018-10-03T19:49:15.142Z,81.06
2018-10-03T19:51:44.907Z,81.62
2018-10-03T19:54:14.457Z,81.19
2018-10-03T19:56:43.971Z,81.64
2018-10-03T19:59:13.578Z,81.86
2018-10-03T20:01:43.106Z,81.93
2018-10-03T20:04:12.608Z,82.01
2018-10-03T20:06:42.145Z,83.03
2018-10-03T20:09:11.759Z,83.24
2018-10-03T20:11:41.297Z,83.50
2018-10-03T20:14:10.880Z,83.05
2018-10-03T20:16:40.328Z,83.92
2018-10-03T20:19:09.964Z,83.75
2018-10-03T20:21:39.555Z,83.59
2018-10-03T20:24:09.251Z,83.99
2018-10-03T20:26:38.906Z,84.27
2018-10-03T20:29:08.798Z,84.67
2018-10-03T20:31:38.642Z,84.40
2018-10-03T20:34:08.322Z,84.33
2018-10-03T20:36:42.943Z,84.21
2018-10-03T20:39:12.678Z,84.71
2018-10-03T20:41:42.602Z,85.19
2018-10-03T20:44:12.071Z,85.12
2018-10-03T20:46:41.550Z,84.96
2018-10-03T20:49:11.129Z,85.52
2018-10-03T20:51:40.724Z,85.98
2018-10-03T20:54:10.382Z,85.81
2018-10-03T20:56:39.839Z,85.61
2018-10-03T20:59:09.482Z,86.64
2018-10-03T21:01:38.965Z,86.41
2018-10-03T21:04:08.479Z,85.98
2018-10-03T21:06:38.005Z,86.18
2018-10-03T21:09:09.374Z,86.55
2018-10-03T21:11:38.863Z,86.82
2018-10-03T21:14:08.444Z,86.88
2018-10-03T21:16:38.108Z,86.42
2018-10-03T21:19:08.103Z,86.45
2018-10-03T21:21:37.580Z,86.90
2018-10-03T21:24:07.360Z,87.21
2018-10-03T21:26:36.793Z,86.73
2018-10-03T21:29:06.531Z,86.51
2018-10-03T21:31:36.044Z,87.07
2018-10-03T21:34:05.459Z,86.87
2018-10-03T21:36:34.814Z,87.40
2018-10-03T21:41:47.237Z,86.52
2018-10-03T21:44:16.639Z,87.25
2018-10-03T21:46:46.118Z,87.32
2018-10-03T21:49:15.534Z,87.83
2018-10-03T21:51:44.988Z,87.65
2018-10-03T21:54:14.538Z,87.75
2018-10-03T21:56:44.029Z,88.42
2018-10-03T21:59:13.514Z,88.81
2018-10-03T22:01:42.932Z,88.24
2018-10-03T22:04:12.333Z,88.79
2018-10-03T22:06:41.800Z,88.70
2018-10-03T22:09:11.253Z,89.13
2018-10-03T22:11:40.819Z,89.48
2018-10-03T22:14:10.401Z,89.61
2018-10-03T22:16:40.294Z,89.70
2018-10-03T22:19:09.861Z,89.84
2018-10-03T22:21:39.219Z,90.49
2018-10-03T22:24:08.604Z,90.10
2018-10-03T22:26:38.084Z,90.25
2018-10-03T22:29:07.482Z,90.46
2018-10-03T22:31:36.959Z,90.84
2018-10-03T22:34:06.490Z,91.18
2018-10-03T22:36:36.266Z,90.68
2018-10-03T22:39:07.807Z,91.15
2018-10-03T22:41:37.239Z,90.76
2018-10-03T22:44:06.703Z,91.02
2018-10-03T22:46:36.387Z,91.28
2018-10-03T22:49:05.809Z,91.24
2018-10-03T22:51:35.183Z,91.77
2018-10-03T22:54:04.628Z,91.63
2018-10-03T22:56:34.254Z,91.85
2018-10-03T22:59:03.706Z,92.31
2018-10-03T23:01:33.100Z,92.15
2018-10-03T23:04:02.479Z,92.09
2018-10-03T23:06:31.956Z,92.27
2018-10-03T23:09:01.339Z,92.42
2018-10-03T23:11:30.815Z,92.03
2018-10-03T23:14:00.190Z,92.24
2018-10-03T23:16:29.637Z,92.49
2018-10-03T23:19:05.562Z,92.93
2018-10-03T23:21:34.970Z,92.50
2018-10-03T23:24:04.357Z,93.13
2018-10-03T23:26:33.808Z,92.30
2018-10-03T23:29:03.295Z,92.97
2018-10-03T23:31:32.785Z,92.34
2018-10-03T23:34:02.223Z,93.21
2018-10-03T23:36:31.796Z,93.39
2018-10-03T23:39:01.270Z,93.88
2018-10-03T23:41:30.638Z,94.29
2018-10-03T23:44:00.017Z,94.29
2018-10-03T23:46:29.548Z,94.79
2018-10-03T23:48:58.915Z,94.30
2018-10-03T23:51:28.370Z,94.69
2018-10-03T23:53:57.743Z,94.12
2018-10-03T23:56:27.163Z,93.57
2018-10-03T23:58:56.653Z,92.37
